KAVP

Wilkes-Barre / Scranton International Airport

Wilkes-Barre/Scranton, Pennsylvania, USA
METAR KAVP 242003Z 03007KT 4SM RA BR FEW008 BKN015 OVC070 07/05 A3017 RMK AO2 P0001 T00670050
Observed Flight Rules
Feb-24 @ 20:03 UTC (12 minutes ago) Marginal Visual Flight Rules
Wind Visibility Clouds Conditions
30° at 7 knots 4 miles
  • Few at 800' AGL
  • Broken at 1,500' AGL
  • Overcast at 7,000' AGL
  • Rain
  • Mist
Temperatures Readings Precipitation
Current 7°C / 45°F
Dewpoint 5°C / 41°F
Humidity 87%
Altimeter 30.17" Hg
Pressure 1022 hPa
Elevation 291
Current Rain 0.01
METAR KAVP 242003Z 03007KT 4SM RA BR FEW008 BKN015 OVC070 07/05 A3017 RMK AO2 P0001 T00670050
Observed Flight Rules
Feb-24 @ 20:03 UTC
(12 minutes ago)
MVFR
Wind Visibility
30° at 7 knots 4 miles
Clouds
  • Few at 800' AGL
  • Broken at 1,500' AGL
  • Overcast at 7,000' AGL
Conditions
  • Rain
  • Mist
Temperature Dewpoint
7°C / 45°F 5°C / 41°F
Humidity Altimeter Pressure
87% 30.17" Hg 1022 hPa
Current Rain
0.01